sensor_id;sensor_type;location;lat;lon;timestamp;P1;durP1;ratioP1;P2;durP2;ratioP2
17175;SDS011;8703;48.996;9.594;2023-02-17T00:00:18;6.50;;;3.83;;
17175;SDS011;8703;48.996;9.594;2023-02-17T00:02:46;11.03;;;5.20;;
17175;SDS011;8703;48.996;9.594;2023-02-17T00:05:13;5.50;;;3.63;;
17175;SDS011;8703;48.996;9.594;2023-02-17T00:07:42;10.37;;;5.07;;
17175;SDS011;8703;48.996;9.594;2023-02-17T00:10:09;13.23;;;5.90;;
17175;SDS011;8703;48.996;9.594;2023-02-17T00:12:37;16.40;;;8.03;;
17175;SDS011;8703;48.996;9.594;2023-02-17T00:15:04;14.00;;;6.17;;
17175;SDS011;8703;48.996;9.594;2023-02-17T00:17:32;16.10;;;6.67;;
17175;SDS011;8703;48.996;9.594;2023-02-17T00:19:59;13.00;;;5.43;;
17175;SDS011;8703;48.996;9.594;2023-02-17T00:22:27;23.23;;;8.83;;
17175;SDS011;8703;48.996;9.594;2023-02-17T00:24:55;24.20;;;9.13;;
17175;SDS011;8703;48.996;9.594;2023-02-17T00:27:23;25.43;;;10.00;;
17175;SDS011;8703;48.996;9.594;2023-02-17T00:29:50;6.63;;;4.23;;
17175;SDS011;8703;48.996;9.594;2023-02-17T00:32:17;30.40;;;10.63;;
17175;SDS011;8703;48.996;9.594;2023-02-17T00:34:45;8.40;;;4.77;;
17175;SDS011;8703;48.996;9.594;2023-02-17T00:37:12;23.57;;;8.30;;
17175;SDS011;8703;48.996;9.594;2023-02-17T00:39:39;30.27;;;10.97;;
17175;SDS011;8703;48.996;9.594;2023-02-17T00:42:08;22.07;;;8.97;;
17175;SDS011;8703;48.996;9.594;2023-02-17T00:44:36;27.70;;;11.07;;
17175;SDS011;8703;48.996;9.594;2023-02-17T00:47:03;9.40;;;5.30;;
17175;SDS011;8703;48.996;9.594;2023-02-17T00:49:30;12.87;;;6.30;;
17175;SDS011;8703;48.996;9.594;2023-02-17T00:51:58;29.57;;;11.40;;
17175;SDS011;8703;48.996;9.594;2023-02-17T00:54:26;18.40;;;7.47;;
17175;SDS011;8703;48.996;9.594;2023-02-17T00:56:54;18.80;;;7.50;;
17175;SDS011;8703;48.996;9.594;2023-02-17T00:59:22;18.23;;;8.30;;
17175;SDS011;8703;48.996;9.594;2023-02-17T01:01:50;17.87;;;9.50;;
17175;SDS011;8703;48.996;9.594;2023-02-17T01:04:17;10.03;;;6.00;;
17175;SDS011;8703;48.996;9.594;2023-02-17T01:06:44;13.43;;;6.47;;
17175;SDS011;8703;48.996;9.594;2023-02-17T01:09:12;10.07;;;5.50;;
17175;SDS011;8703;48.996;9.594;2023-02-17T01:11:40;10.57;;;4.90;;
17175;SDS011;8703;48.996;9.594;2023-02-17T01:14:09;11.70;;;5.27;;
17175;SDS011;8703;48.996;9.594;2023-02-17T01:16:40;6.67;;;3.87;;
17175;SDS011;8703;48.996;9.594;2023-02-17T01:19:10;7.77;;;4.50;;
17175;SDS011;8703;48.996;9.594;2023-02-17T01:21:38;6.43;;;4.30;;
17175;SDS011;8703;48.996;9.594;2023-02-17T01:24:06;8.17;;;4.30;;
17175;SDS011;8703;48.996;9.594;2023-02-17T01:26:35;7.83;;;4.50;;
17175;SDS011;8703;48.996;9.594;2023-02-17T01:29:03;6.33;;;4.10;;
17175;SDS011;8703;48.996;9.594;2023-02-17T01:31:31;5.80;;;3.73;;
17175;SDS011;8703;48.996;9.594;2023-02-17T01:34:01;9.67;;;5.47;;
17175;SDS011;8703;48.996;9.594;2023-02-17T01:36:29;10.80;;;6.23;;
17175;SDS011;8703;48.996;9.594;2023-02-17T01:38:56;7.70;;;5.17;;
17175;SDS011;8703;48.996;9.594;2023-02-17T01:41:24;11.73;;;7.07;;
17175;SDS011;8703;48.996;9.594;2023-02-17T01:44:11;11.17;;;7.23;;
17175;SDS011;8703;48.996;9.594;2023-02-17T01:46:41;6.00;;;3.60;;
17175;SDS011;8703;48.996;9.594;2023-02-17T01:49:16;10.10;;;5.57;;
17175;SDS011;8703;48.996;9.594;2023-02-17T01:51:48;14.27;;;7.67;;
17175;SDS011;8703;48.996;9.594;2023-02-17T01:54:19;10.60;;;4.87;;
17175;SDS011;8703;48.996;9.594;2023-02-17T01:56:50;8.03;;;4.80;;
17175;SDS011;8703;48.996;9.594;2023-02-17T01:59:18;10.87;;;5.83;;
17175;SDS011;8703;48.996;9.594;2023-02-17T02:01:46;9.80;;;5.83;;
17175;SDS011;8703;48.996;9.594;2023-02-17T02:04:19;41.83;;;16.87;;
17175;SDS011;8703;48.996;9.594;2023-02-17T02:06:47;20.70;;;10.40;;
17175;SDS011;8703;48.996;9.594;2023-02-17T02:09:15;13.57;;;7.97;;
17175;SDS011;8703;48.996;9.594;2023-02-17T02:11:46;7.20;;;4.27;;
17175;SDS011;8703;48.996;9.594;2023-02-17T02:14:14;6.70;;;4.20;;
17175;SDS011;8703;48.996;9.594;2023-02-17T02:16:44;7.43;;;4.53;;
17175;SDS011;8703;48.996;9.594;2023-02-17T02:19:23;7.13;;;4.60;;
17175;SDS011;8703;48.996;9.594;2023-02-17T02:22:06;6.93;;;4.30;;
17175;SDS011;8703;48.996;9.594;2023-02-17T02:24:49;8.43;;;5.10;;
17175;SDS011;8703;48.996;9.594;2023-02-17T02:30:26;11.67;;;5.70;;
17175;SDS011;8703;48.996;9.594;2023-02-17T02:33:11;10.57;;;5.33;;
17175;SDS011;8703;48.996;9.594;2023-02-17T02:35:50;8.60;;;4.80;;
17175;SDS011;8703;48.996;9.594;2023-02-17T02:38:23;11.87;;;5.07;;
17175;SDS011;8703;48.996;9.594;2023-02-17T02:40:55;11.90;;;6.20;;
17175;SDS011;8703;48.996;9.594;2023-02-17T02:43:29;9.67;;;4.40;;
17175;SDS011;8703;48.996;9.594;2023-02-17T02:45:57;9.33;;;4.53;;
17175;SDS011;8703;48.996;9.594;2023-02-17T02:48:26;8.63;;;4.80;;
17175;SDS011;8703;48.996;9.594;2023-02-17T02:50:58;9.83;;;5.40;;
17175;SDS011;8703;48.996;9.594;2023-02-17T02:56:18;22.17;;;9.80;;
17175;SDS011;8703;48.996;9.594;2023-02-17T02:58:55;13.83;;;8.40;;
17175;SDS011;8703;48.996;9.594;2023-02-17T03:01:27;16.70;;;7.43;;
17175;SDS011;8703;48.996;9.594;2023-02-17T03:04:03;13.80;;;6.73;;
17175;SDS011;8703;48.996;9.594;2023-02-17T03:06:35;10.37;;;5.80;;
17175;SDS011;8703;48.996;9.594;2023-02-17T03:09:05;14.73;;;7.10;;
17175;SDS011;8703;48.996;9.594;2023-02-17T03:11:35;14.97;;;6.57;;
17175;SDS011;8703;48.996;9.594;2023-02-17T03:14:04;16.37;;;7.50;;
17175;SDS011;8703;48.996;9.594;2023-02-17T03:16:33;20.87;;;8.23;;
17175;SDS011;8703;48.996;9.594;2023-02-17T03:19:03;20.27;;;8.23;;
17175;SDS011;8703;48.996;9.594;2023-02-17T03:21:32;21.07;;;8.50;;
17175;SDS011;8703;48.996;9.594;2023-02-17T03:24:02;20.27;;;8.17;;
17175;SDS011;8703;48.996;9.594;2023-02-17T03:26:30;17.07;;;7.10;;
17175;SDS011;8703;48.996;9.594;2023-02-17T03:28:57;15.97;;;4.97;;
17175;SDS011;8703;48.996;9.594;2023-02-17T03:31:25;15.43;;;6.07;;
17175;SDS011;8703;48.996;9.594;2023-02-17T03:33:52;12.13;;;4.90;;
17175;SDS011;8703;48.996;9.594;2023-02-17T03:36:21;12.03;;;5.50;;
17175;SDS011;8703;48.996;9.594;2023-02-17T03:38:48;11.60;;;5.70;;
17175;SDS011;8703;48.996;9.594;2023-02-17T03:41:16;8.10;;;4.00;;
17175;SDS011;8703;48.996;9.594;2023-02-17T03:43:43;8.63;;;4.17;;
17175;SDS011;8703;48.996;9.594;2023-02-17T03:46:10;7.07;;;3.80;;
17175;SDS011;8703;48.996;9.594;2023-02-17T03:48:39;5.27;;;3.23;;
17175;SDS011;8703;48.996;9.594;2023-02-17T03:51:10;6.83;;;3.30;;
17175;SDS011;8703;48.996;9.594;2023-02-17T03:53:41;7.03;;;2.87;;
17175;SDS011;8703;48.996;9.594;2023-02-17T03:56:09;6.43;;;3.30;;
17175;SDS011;8703;48.996;9.594;2023-02-17T03:58:36;5.67;;;3.50;;
17175;SDS011;8703;48.996;9.594;2023-02-17T04:01:04;6.00;;;2.93;;
17175;SDS011;8703;48.996;9.594;2023-02-17T04:03:32;5.80;;;3.23;;
17175;SDS011;8703;48.996;9.594;2023-02-17T04:06:00;4.27;;;2.70;;
17175;SDS011;8703;48.996;9.594;2023-02-17T04:08:28;6.30;;;3.03;;
17175;SDS011;8703;48.996;9.594;2023-02-17T04:10:58;5.50;;;2.90;;
17175;SDS011;8703;48.996;9.594;2023-02-17T04:13:26;4.27;;;2.90;;
17175;SDS011;8703;48.996;9.594;2023-02-17T04:15:53;5.97;;;3.00;;
17175;SDS011;8703;48.996;9.594;2023-02-17T04:18:21;5.57;;;2.97;;
17175;SDS011;8703;48.996;9.594;2023-02-17T04:20:49;4.73;;;2.87;;
17175;SDS011;8703;48.996;9.594;2023-02-17T04:23:17;5.73;;;2.80;;
17175;SDS011;8703;48.996;9.594;2023-02-17T04:25:44;7.60;;;3.33;;
17175;SDS011;8703;48.996;9.594;2023-02-17T04:28:13;5.90;;;3.40;;
17175;SDS011;8703;48.996;9.594;2023-02-17T04:30:42;5.07;;;2.73;;
17175;SDS011;8703;48.996;9.594;2023-02-17T04:33:10;4.90;;;2.80;;
17175;SDS011;8703;48.996;9.594;2023-02-17T04:35:37;6.43;;;3.07;;
17175;SDS011;8703;48.996;9.594;2023-02-17T04:38:05;5.53;;;3.40;;
17175;SDS011;8703;48.996;9.594;2023-02-17T04:40:33;6.47;;;3.40;;
17175;SDS011;8703;48.996;9.594;2023-02-17T04:43:00;4.33;;;2.97;;
17175;SDS011;8703;48.996;9.594;2023-02-17T04:45:29;5.67;;;2.60;;
17175;SDS011;8703;48.996;9.594;2023-02-17T04:47:56;5.27;;;2.87;;
17175;SDS011;8703;48.996;9.594;2023-02-17T04:50:23;5.70;;;2.90;;
17175;SDS011;8703;48.996;9.594;2023-02-17T04:52:51;5.50;;;2.70;;
17175;SDS011;8703;48.996;9.594;2023-02-17T04:55:18;4.60;;;2.70;;
17175;SDS011;8703;48.996;9.594;2023-02-17T04:57:46;5.60;;;2.60;;
17175;SDS011;8703;48.996;9.594;2023-02-17T05:00:13;4.27;;;2.80;;
17175;SDS011;8703;48.996;9.594;2023-02-17T05:02:42;6.73;;;2.83;;
17175;SDS011;8703;48.996;9.594;2023-02-17T05:05:09;5.13;;;3.00;;
17175;SDS011;8703;48.996;9.594;2023-02-17T05:07:39;5.20;;;2.70;;
17175;SDS011;8703;48.996;9.594;2023-02-17T05:10:07;4.33;;;3.20;;
17175;SDS011;8703;48.996;9.594;2023-02-17T05:12:35;5.67;;;3.17;;
17175;SDS011;8703;48.996;9.594;2023-02-17T05:15:04;4.33;;;2.63;;
17175;SDS011;8703;48.996;9.594;2023-02-17T05:17:32;5.80;;;2.90;;
17175;SDS011;8703;48.996;9.594;2023-02-17T05:20:01;5.77;;;2.60;;
17175;SDS011;8703;48.996;9.594;2023-02-17T05:22:29;4.47;;;2.60;;
17175;SDS011;8703;48.996;9.594;2023-02-17T05:24:56;4.93;;;2.63;;
17175;SDS011;8703;48.996;9.594;2023-02-17T05:27:24;3.83;;;2.43;;
17175;SDS011;8703;48.996;9.594;2023-02-17T05:29:51;5.83;;;3.40;;
17175;SDS011;8703;48.996;9.594;2023-02-17T05:32:18;5.83;;;3.17;;
17175;SDS011;8703;48.996;9.594;2023-02-17T05:34:47;6.73;;;2.80;;
17175;SDS011;8703;48.996;9.594;2023-02-17T05:37:15;5.17;;;3.30;;
17175;SDS011;8703;48.996;9.594;2023-02-17T05:39:42;6.80;;;2.50;;
17175;SDS011;8703;48.996;9.594;2023-02-17T05:42:10;3.87;;;2.50;;
17175;SDS011;8703;48.996;9.594;2023-02-17T05:44:38;5.10;;;2.90;;
17175;SDS011;8703;48.996;9.594;2023-02-17T05:47:05;4.97;;;2.63;;
17175;SDS011;8703;48.996;9.594;2023-02-17T05:49:32;5.07;;;3.20;;
17175;SDS011;8703;48.996;9.594;2023-02-17T05:52:00;5.13;;;2.63;;
17175;SDS011;8703;48.996;9.594;2023-02-17T05:54:29;4.90;;;2.70;;
17175;SDS011;8703;48.996;9.594;2023-02-17T05:56:56;5.47;;;2.80;;
17175;SDS011;8703;48.996;9.594;2023-02-17T05:59:24;5.40;;;2.77;;
17175;SDS011;8703;48.996;9.594;2023-02-17T06:01:51;7.23;;;2.77;;
17175;SDS011;8703;48.996;9.594;2023-02-17T06:04:18;4.53;;;2.97;;
17175;SDS011;8703;48.996;9.594;2023-02-17T06:06:46;4.57;;;2.57;;
17175;SDS011;8703;48.996;9.594;2023-02-17T06:09:13;7.17;;;2.80;;
17175;SDS011;8703;48.996;9.594;2023-02-17T06:11:42;5.30;;;3.10;;
17175;SDS011;8703;48.996;9.594;2023-02-17T06:14:09;5.87;;;2.80;;
17175;SDS011;8703;48.996;9.594;2023-02-17T06:16:36;7.77;;;5.63;;
17175;SDS011;8703;48.996;9.594;2023-02-17T06:19:04;6.73;;;3.30;;
17175;SDS011;8703;48.996;9.594;2023-02-17T06:21:31;5.87;;;3.03;;
17175;SDS011;8703;48.996;9.594;2023-02-17T06:23:58;4.60;;;2.43;;
17175;SDS011;8703;48.996;9.594;2023-02-17T06:26:26;6.60;;;3.07;;
17175;SDS011;8703;48.996;9.594;2023-02-17T06:28:54;5.33;;;3.33;;
17175;SDS011;8703;48.996;9.594;2023-02-17T06:31:22;5.90;;;2.70;;
17175;SDS011;8703;48.996;9.594;2023-02-17T06:33:49;6.77;;;3.00;;
17175;SDS011;8703;48.996;9.594;2023-02-17T06:36:16;6.10;;;2.90;;
17175;SDS011;8703;48.996;9.594;2023-02-17T06:38:44;5.30;;;2.70;;
17175;SDS011;8703;48.996;9.594;2023-02-17T06:41:11;5.63;;;3.03;;
17175;SDS011;8703;48.996;9.594;2023-02-17T06:43:38;5.90;;;2.90;;
17175;SDS011;8703;48.996;9.594;2023-02-17T06:46:07;6.23;;;3.10;;
17175;SDS011;8703;48.996;9.594;2023-02-17T06:48:35;4.67;;;3.10;;
17175;SDS011;8703;48.996;9.594;2023-02-17T06:51:02;5.67;;;2.93;;
17175;SDS011;8703;48.996;9.594;2023-02-17T06:53:30;6.37;;;3.00;;
17175;SDS011;8703;48.996;9.594;2023-02-17T06:55:57;6.47;;;3.07;;
17175;SDS011;8703;48.996;9.594;2023-02-17T06:58:24;6.03;;;2.90;;
17175;SDS011;8703;48.996;9.594;2023-02-17T07:00:52;4.10;;;3.00;;
17175;SDS011;8703;48.996;9.594;2023-02-17T07:03:20;4.23;;;2.93;;
17175;SDS011;8703;48.996;9.594;2023-02-17T07:05:48;5.03;;;3.10;;
17175;SDS011;8703;48.996;9.594;2023-02-17T07:08:15;5.90;;;3.73;;
17175;SDS011;8703;48.996;9.594;2023-02-17T07:10:42;5.03;;;2.90;;
17175;SDS011;8703;48.996;9.594;2023-02-17T07:13:10;5.07;;;3.57;;
17175;SDS011;8703;48.996;9.594;2023-02-17T07:15:37;7.93;;;4.00;;
17175;SDS011;8703;48.996;9.594;2023-02-17T07:18:04;5.97;;;3.20;;
17175;SDS011;8703;48.996;9.594;2023-02-17T07:20:33;6.70;;;3.10;;
17175;SDS011;8703;48.996;9.594;2023-02-17T07:23:01;4.30;;;3.10;;
17175;SDS011;8703;48.996;9.594;2023-02-17T07:25:28;6.13;;;3.47;;
17175;SDS011;8703;48.996;9.594;2023-02-17T07:27:55;5.53;;;3.20;;
17175;SDS011;8703;48.996;9.594;2023-02-17T07:30:24;5.27;;;3.20;;
17175;SDS011;8703;48.996;9.594;2023-02-17T07:32:51;5.60;;;3.07;;
17175;SDS011;8703;48.996;9.594;2023-02-17T07:35:19;5.03;;;3.00;;
17175;SDS011;8703;48.996;9.594;2023-02-17T07:37:47;4.87;;;3.13;;
17175;SDS011;8703;48.996;9.594;2023-02-17T07:40:15;5.90;;;2.87;;
17175;SDS011;8703;48.996;9.594;2023-02-17T07:42:43;4.83;;;3.10;;
17175;SDS011;8703;48.996;9.594;2023-02-17T07:45:10;5.90;;;2.93;;
17175;SDS011;8703;48.996;9.594;2023-02-17T07:47:37;5.40;;;3.20;;
17175;SDS011;8703;48.996;9.594;2023-02-17T07:50:05;4.47;;;2.47;;
17175;SDS011;8703;48.996;9.594;2023-02-17T07:52:33;3.67;;;2.60;;
17175;SDS011;8703;48.996;9.594;2023-02-17T07:55:02;3.60;;;2.87;;
17175;SDS011;8703;48.996;9.594;2023-02-17T07:57:30;5.63;;;3.10;;
17175;SDS011;8703;48.996;9.594;2023-02-17T07:59:57;6.57;;;3.33;;
17175;SDS011;8703;48.996;9.594;2023-02-17T08:02:24;4.60;;;2.90;;
17175;SDS011;8703;48.996;9.594;2023-02-17T08:04:52;6.93;;;3.77;;
17175;SDS011;8703;48.996;9.594;2023-02-17T08:07:19;5.93;;;3.13;;
17175;SDS011;8703;48.996;9.594;2023-02-17T08:09:47;4.63;;;3.00;;
17175;SDS011;8703;48.996;9.594;2023-02-17T08:12:33;6.33;;;3.27;;
17175;SDS011;8703;48.996;9.594;2023-02-17T08:15:17;4.33;;;2.60;;
17175;SDS011;8703;48.996;9.594;2023-02-17T08:17:45;4.97;;;2.67;;
17175;SDS011;8703;48.996;9.594;2023-02-17T08:20:12;4.80;;;3.10;;
17175;SDS011;8703;48.996;9.594;2023-02-17T08:22:40;6.07;;;3.33;;
17175;SDS011;8703;48.996;9.594;2023-02-17T08:25:07;4.20;;;3.00;;
17175;SDS011;8703;48.996;9.594;2023-02-17T08:27:36;5.00;;;3.17;;
17175;SDS011;8703;48.996;9.594;2023-02-17T08:30:04;3.93;;;2.73;;
17175;SDS011;8703;48.996;9.594;2023-02-17T08:32:32;4.83;;;2.53;;
17175;SDS011;8703;48.996;9.594;2023-02-17T08:34:59;4.50;;;2.63;;
17175;SDS011;8703;48.996;9.594;2023-02-17T08:37:27;4.57;;;2.77;;
17175;SDS011;8703;48.996;9.594;2023-02-17T08:39:55;4.40;;;2.40;;
17175;SDS011;8703;48.996;9.594;2023-02-17T08:42:23;4.40;;;3.00;;
17175;SDS011;8703;48.996;9.594;2023-02-17T08:44:52;5.33;;;2.57;;
17175;SDS011;8703;48.996;9.594;2023-02-17T08:47:20;3.83;;;2.80;;
17175;SDS011;8703;48.996;9.594;2023-02-17T08:49:48;5.00;;;2.80;;
17175;SDS011;8703;48.996;9.594;2023-02-17T08:52:15;3.20;;;2.50;;
17175;SDS011;8703;48.996;9.594;2023-02-17T08:54:42;4.00;;;2.60;;
17175;SDS011;8703;48.996;9.594;2023-02-17T08:57:10;3.60;;;2.50;;
17175;SDS011;8703;48.996;9.594;2023-02-17T08:59:37;6.10;;;2.57;;
17175;SDS011;8703;48.996;9.594;2023-02-17T09:02:06;4.00;;;2.50;;
17175;SDS011;8703;48.996;9.594;2023-02-17T09:04:35;5.20;;;2.93;;
17175;SDS011;8703;48.996;9.594;2023-02-17T09:07:02;5.27;;;2.40;;
17175;SDS011;8703;48.996;9.594;2023-02-17T09:09:29;3.50;;;2.37;;
17175;SDS011;8703;48.996;9.594;2023-02-17T09:11:59;3.53;;;2.47;;
17175;SDS011;8703;48.996;9.594;2023-02-17T09:14:27;4.90;;;2.77;;
17175;SDS011;8703;48.996;9.594;2023-02-17T09:16:54;5.53;;;2.33;;
17175;SDS011;8703;48.996;9.594;2023-02-17T09:19:23;3.10;;;2.53;;
17175;SDS011;8703;48.996;9.594;2023-02-17T09:21:51;5.83;;;2.67;;
17175;SDS011;8703;48.996;9.594;2023-02-17T09:24:18;3.53;;;2.43;;
17175;SDS011;8703;48.996;9.594;2023-02-17T09:26:46;3.87;;;2.27;;
17175;SDS011;8703;48.996;9.594;2023-02-17T09:29:13;2.87;;;2.20;;
17175;SDS011;8703;48.996;9.594;2023-02-17T09:31:40;3.77;;;2.33;;
17175;SDS011;8703;48.996;9.594;2023-02-17T09:34:09;4.63;;;2.30;;
17175;SDS011;8703;48.996;9.594;2023-02-17T09:36:39;5.80;;;2.50;;
17175;SDS011;8703;48.996;9.594;2023-02-17T09:39:07;3.23;;;2.40;;
17175;SDS011;8703;48.996;9.594;2023-02-17T09:41:38;5.00;;;2.70;;
17175;SDS011;8703;48.996;9.594;2023-02-17T09:44:12;5.20;;;2.20;;
17175;SDS011;8703;48.996;9.594;2023-02-17T09:46:43;3.47;;;2.23;;
17175;SDS011;8703;48.996;9.594;2023-02-17T09:49:14;4.83;;;2.60;;
17175;SDS011;8703;48.996;9.594;2023-02-17T09:51:46;3.73;;;2.20;;
17175;SDS011;8703;48.996;9.594;2023-02-17T09:54:19;3.87;;;2.20;;
17175;SDS011;8703;48.996;9.594;2023-02-17T09:56:49;3.20;;;2.30;;
17175;SDS011;8703;48.996;9.594;2023-02-17T09:59:19;4.00;;;2.83;;
17175;SDS011;8703;48.996;9.594;2023-02-17T10:01:48;5.17;;;2.30;;
17175;SDS011;8703;48.996;9.594;2023-02-17T10:04:18;3.70;;;3.00;;
17175;SDS011;8703;48.996;9.594;2023-02-17T10:06:50;2.90;;;2.23;;
17175;SDS011;8703;48.996;9.594;2023-02-17T10:09:19;4.37;;;2.10;;
17175;SDS011;8703;48.996;9.594;2023-02-17T10:11:50;4.83;;;2.03;;
17175;SDS011;8703;48.996;9.594;2023-02-17T10:14:21;3.90;;;2.00;;
17175;SDS011;8703;48.996;9.594;2023-02-17T10:16:53;3.17;;;2.10;;
17175;SDS011;8703;48.996;9.594;2023-02-17T10:19:25;2.47;;;2.00;;
17175;SDS011;8703;48.996;9.594;2023-02-17T10:21:57;6.73;;;3.73;;
17175;SDS011;8703;48.996;9.594;2023-02-17T10:24:31;3.77;;;2.00;;
17175;SDS011;8703;48.996;9.594;2023-02-17T10:27:08;3.87;;;2.30;;
17175;SDS011;8703;48.996;9.594;2023-02-17T10:29:48;2.90;;;1.90;;
17175;SDS011;8703;48.996;9.594;2023-02-17T10:32:21;4.47;;;2.53;;
17175;SDS011;8703;48.996;9.594;2023-02-17T10:34:53;2.40;;;1.90;;
17175;SDS011;8703;48.996;9.594;2023-02-17T10:37:30;3.63;;;2.00;;
17175;SDS011;8703;48.996;9.594;2023-02-17T10:40:01;2.57;;;1.80;;
17175;SDS011;8703;48.996;9.594;2023-02-17T10:42:33;2.33;;;1.80;;
17175;SDS011;8703;48.996;9.594;2023-02-17T10:45:03;2.37;;;1.90;;
17175;SDS011;8703;48.996;9.594;2023-02-17T10:47:34;2.70;;;1.70;;
17175;SDS011;8703;48.996;9.594;2023-02-17T10:50:02;2.20;;;1.87;;
17175;SDS011;8703;48.996;9.594;2023-02-17T10:52:34;3.40;;;1.90;;
17175;SDS011;8703;48.996;9.594;2023-02-17T10:55:04;4.30;;;2.23;;
17175;SDS011;8703;48.996;9.594;2023-02-17T10:57:34;4.10;;;2.00;;
17175;SDS011;8703;48.996;9.594;2023-02-17T11:00:04;2.77;;;1.83;;
17175;SDS011;8703;48.996;9.594;2023-02-17T11:02:34;2.67;;;1.60;;
17175;SDS011;8703;48.996;9.594;2023-02-17T11:05:02;3.53;;;2.20;;
17175;SDS011;8703;48.996;9.594;2023-02-17T11:07:32;2.10;;;1.60;;
17175;SDS011;8703;48.996;9.594;2023-02-17T11:10:02;2.60;;;1.53;;
17175;SDS011;8703;48.996;9.594;2023-02-17T11:12:44;2.30;;;1.70;;
17175;SDS011;8703;48.996;9.594;2023-02-17T11:15:14;3.73;;;2.00;;
17175;SDS011;8703;48.996;9.594;2023-02-17T11:17:43;2.73;;;2.10;;
17175;SDS011;8703;48.996;9.594;2023-02-17T11:20:26;2.70;;;1.80;;
17175;SDS011;8703;48.996;9.594;2023-02-17T11:23:00;3.50;;;2.10;;
17175;SDS011;8703;48.996;9.594;2023-02-17T11:25:34;2.40;;;1.80;;
17175;SDS011;8703;48.996;9.594;2023-02-17T11:28:03;2.87;;;2.30;;
17175;SDS011;8703;48.996;9.594;2023-02-17T11:30:33;3.17;;;1.97;;
17175;SDS011;8703;48.996;9.594;2023-02-17T11:33:11;3.20;;;1.80;;
17175;SDS011;8703;48.996;9.594;2023-02-17T11:35:44;2.87;;;2.40;;
17175;SDS011;8703;48.996;9.594;2023-02-17T11:38:16;3.13;;;2.30;;
17175;SDS011;8703;48.996;9.594;2023-02-17T11:40:52;2.23;;;1.83;;
17175;SDS011;8703;48.996;9.594;2023-02-17T11:43:23;2.87;;;2.07;;
17175;SDS011;8703;48.996;9.594;2023-02-17T11:51:47;2.77;;;2.50;;
17175;SDS011;8703;48.996;9.594;2023-02-17T11:54:22;3.17;;;2.27;;
17175;SDS011;8703;48.996;9.594;2023-02-17T11:56:56;3.70;;;2.40;;
17175;SDS011;8703;48.996;9.594;2023-02-17T11:59:33;4.30;;;2.50;;
17175;SDS011;8703;48.996;9.594;2023-02-17T12:02:10;3.70;;;2.23;;
17175;SDS011;8703;48.996;9.594;2023-02-17T12:04:43;3.30;;;2.33;;
17175;SDS011;8703;48.996;9.594;2023-02-17T12:07:22;3.30;;;2.27;;
17175;SDS011;8703;48.996;9.594;2023-02-17T12:09:58;3.60;;;2.77;;
17175;SDS011;8703;48.996;9.594;2023-02-17T12:12:34;3.90;;;2.93;;
17175;SDS011;8703;48.996;9.594;2023-02-17T12:15:14;3.07;;;2.50;;
17175;SDS011;8703;48.996;9.594;2023-02-17T12:17:54;3.63;;;2.50;;
17175;SDS011;8703;48.996;9.594;2023-02-17T12:20:30;4.60;;;2.50;;
17175;SDS011;8703;48.996;9.594;2023-02-17T12:23:05;6.80;;;2.30;;
17175;SDS011;8703;48.996;9.594;2023-02-17T12:25:40;2.47;;;2.10;;
17175;SDS011;8703;48.996;9.594;2023-02-17T12:28:19;3.37;;;2.40;;
17175;SDS011;8703;48.996;9.594;2023-02-17T12:30:59;3.27;;;2.43;;
17175;SDS011;8703;48.996;9.594;2023-02-17T12:33:35;4.17;;;2.80;;
17175;SDS011;8703;48.996;9.594;2023-02-17T12:36:10;2.93;;;2.07;;
17175;SDS011;8703;48.996;9.594;2023-02-17T12:38:43;3.00;;;2.37;;
17175;SDS011;8703;48.996;9.594;2023-02-17T12:41:15;4.37;;;2.70;;
17175;SDS011;8703;48.996;9.594;2023-02-17T12:43:48;4.63;;;2.80;;
17175;SDS011;8703;48.996;9.594;2023-02-17T12:46:18;3.97;;;3.17;;
17175;SDS011;8703;48.996;9.594;2023-02-17T12:48:48;5.10;;;2.93;;
17175;SDS011;8703;48.996;9.594;2023-02-17T12:51:20;4.20;;;2.60;;
17175;SDS011;8703;48.996;9.594;2023-02-17T12:53:50;5.53;;;3.23;;
17175;SDS011;8703;48.996;9.594;2023-02-17T12:56:36;5.50;;;3.30;;
17175;SDS011;8703;48.996;9.594;2023-02-17T12:59:09;4.80;;;3.63;;
17175;SDS011;8703;48.996;9.594;2023-02-17T13:01:41;6.23;;;3.23;;
17175;SDS011;8703;48.996;9.594;2023-02-17T13:04:21;5.97;;;3.80;;
17175;SDS011;8703;48.996;9.594;2023-02-17T13:06:52;5.37;;;3.90;;
17175;SDS011;8703;48.996;9.594;2023-02-17T13:09:29;6.53;;;4.73;;
17175;SDS011;8703;48.996;9.594;2023-02-17T13:12:14;8.40;;;4.57;;
17175;SDS011;8703;48.996;9.594;2023-02-17T13:14:44;6.80;;;4.60;;
17175;SDS011;8703;48.996;9.594;2023-02-17T13:17:21;6.73;;;4.80;;
17175;SDS011;8703;48.996;9.594;2023-02-17T13:19:58;7.60;;;5.00;;
17175;SDS011;8703;48.996;9.594;2023-02-17T13:22:44;8.63;;;4.57;;
17175;SDS011;8703;48.996;9.594;2023-02-17T13:25:12;6.97;;;4.83;;
17175;SDS011;8703;48.996;9.594;2023-02-17T13:27:52;6.03;;;3.90;;
17175;SDS011;8703;48.996;9.594;2023-02-17T13:30:26;7.27;;;4.10;;
17175;SDS011;8703;48.996;9.594;2023-02-17T13:32:59;6.37;;;3.80;;
17175;SDS011;8703;48.996;9.594;2023-02-17T13:35:29;5.97;;;3.67;;
17175;SDS011;8703;48.996;9.594;2023-02-17T13:37:59;4.87;;;3.73;;
17175;SDS011;8703;48.996;9.594;2023-02-17T13:40:31;5.57;;;3.60;;
17175;SDS011;8703;48.996;9.594;2023-02-17T13:43:08;5.83;;;4.00;;
17175;SDS011;8703;48.996;9.594;2023-02-17T13:45:40;7.03;;;4.23;;
17175;SDS011;8703;48.996;9.594;2023-02-17T13:48:10;4.77;;;3.87;;
17175;SDS011;8703;48.996;9.594;2023-02-17T13:50:43;5.93;;;3.73;;
17175;SDS011;8703;48.996;9.594;2023-02-17T13:53:22;3.80;;;3.20;;
17175;SDS011;8703;48.996;9.594;2023-02-17T13:55:52;4.33;;;3.40;;
17175;SDS011;8703;48.996;9.594;2023-02-17T13:58:22;3.93;;;3.30;;
17175;SDS011;8703;48.996;9.594;2023-02-17T14:00:52;4.03;;;3.10;;
17175;SDS011;8703;48.996;9.594;2023-02-17T14:03:20;4.00;;;2.97;;
17175;SDS011;8703;48.996;9.594;2023-02-17T14:05:49;4.67;;;2.60;;
17175;SDS011;8703;48.996;9.594;2023-02-17T14:11:13;4.57;;;2.20;;
17175;SDS011;8703;48.996;9.594;2023-02-17T14:17:11;2.80;;;2.13;;
17175;SDS011;8703;48.996;9.594;2023-02-17T14:19:42;4.03;;;3.00;;
17175;SDS011;8703;48.996;9.594;2023-02-17T14:22:22;5.13;;;3.07;;
17175;SDS011;8703;48.996;9.594;2023-02-17T14:38:41;1.63;;;1.13;;
17175;SDS011;8703;48.996;9.594;2023-02-17T14:41:11;2.27;;;1.20;;
17175;SDS011;8703;48.996;9.594;2023-02-17T14:44:43;1.93;;;1.40;;
17175;SDS011;8703;48.996;9.594;2023-02-17T14:47:10;3.13;;;1.90;;
17175;SDS011;8703;48.996;9.594;2023-02-17T14:49:38;1.90;;;1.63;;
17175;SDS011;8703;48.996;9.594;2023-02-17T14:52:10;2.87;;;2.30;;
17175;SDS011;8703;48.996;9.594;2023-02-17T14:54:45;3.23;;;2.67;;
17175;SDS011;8703;48.996;9.594;2023-02-17T15:00:33;2.83;;;1.93;;
17175;SDS011;8703;48.996;9.594;2023-02-17T15:03:00;2.53;;;1.70;;
17175;SDS011;8703;48.996;9.594;2023-02-17T15:05:28;3.17;;;2.20;;
17175;SDS011;8703;48.996;9.594;2023-02-17T15:07:55;4.10;;;2.50;;
17175;SDS011;8703;48.996;9.594;2023-02-17T15:10:27;3.90;;;2.43;;
17175;SDS011;8703;48.996;9.594;2023-02-17T15:12:55;2.63;;;2.30;;
17175;SDS011;8703;48.996;9.594;2023-02-17T15:15:22;3.47;;;2.73;;
17175;SDS011;8703;48.996;9.594;2023-02-17T15:17:50;5.77;;;4.07;;
17175;SDS011;8703;48.996;9.594;2023-02-17T15:20:17;6.03;;;4.00;;
17175;SDS011;8703;48.996;9.594;2023-02-17T15:22:44;3.17;;;2.30;;
17175;SDS011;8703;48.996;9.594;2023-02-17T15:25:17;2.50;;;2.30;;
17175;SDS011;8703;48.996;9.594;2023-02-17T15:27:48;2.80;;;2.50;;
17175;SDS011;8703;48.996;9.594;2023-02-17T15:30:16;3.33;;;2.43;;
17175;SDS011;8703;48.996;9.594;2023-02-17T15:32:44;3.13;;;2.30;;
17175;SDS011;8703;48.996;9.594;2023-02-17T15:35:16;3.27;;;2.80;;
17175;SDS011;8703;48.996;9.594;2023-02-17T15:37:45;5.83;;;4.67;;
17175;SDS011;8703;48.996;9.594;2023-02-17T15:40:13;3.07;;;2.70;;
17175;SDS011;8703;48.996;9.594;2023-02-17T15:42:42;6.30;;;3.00;;
17175;SDS011;8703;48.996;9.594;2023-02-17T15:45:12;2.10;;;1.40;;
17175;SDS011;8703;48.996;9.594;2023-02-17T15:47:42;2.73;;;1.60;;
17175;SDS011;8703;48.996;9.594;2023-02-17T15:50:11;3.53;;;1.63;;